Time;durP1;ratioP1;P1;durP2;ratioP2;P2;SDS_P1;SDS_P2;PMS_P1;PMS_P2;Temp;Humidity;BMP_temperature;BMP_pressure;BME280_temperature;BME280_humidity;BME280_pressure;Samples;Min_cycle;Max_cycle;Signal;HPM_P1;HPM_P2
2022/07/02 00:01:08;;;;;;;;;;;13.40;99.90;;;;;;5062311;28;19967;-74
2022/07/02 00:03:36;;;;;;;;;;;13.40;99.90;;;;;;5060352;28;20368;-75
2022/07/02 00:06:03;;;;;;;;;;;13.40;99.90;;;;;;5038260;28;19984;-75
2022/07/02 00:08:29;;;;;;;;;;;13.70;99.90;;;;;;5046372;28;19958;-75
2022/07/02 00:10:55;;;;;;;;;;;13.30;99.90;;;;;;5048280;28;20389;-75
2022/07/02 00:13:21;;;;;;;;;;;13.30;99.90;;;;;;5043272;28;20000;-74
2022/07/02 00:15:47;;;;;;;;;;;13.30;99.90;;;;;;5063695;28;19967;-75
2022/07/02 00:18:13;;;;;;;;;;;13.30;99.90;;;;;;5058748;28;19970;-75
2022/07/02 00:20:40;;;;;;;;;;;13.40;99.90;;;;;;5035706;28;20331;-75
2022/07/02 00:23:06;;;;;;;;;;;13.20;99.90;;;;;;5030366;28;20361;-75
2022/07/02 00:25:33;;;;;;;;;;;13.20;99.90;;;;;;5031588;28;19921;-75
2022/07/02 00:27:59;;;;;;;;;;;13.20;99.90;;;;;;5030707;28;20284;-75
2022/07/02 00:30:25;;;;;;;;;;;13.40;99.90;;;;;;5030703;28;19921;-75
2022/07/02 00:32:50;;;;;;;;;;;13.30;99.90;;;;;;5032940;28;19925;-75
2022/07/02 00:35:16;;;;;;;;;;;13.20;99.90;;;;;;5034311;28;20001;-75
2022/07/02 00:37:42;;;;;;;;;;;13.20;99.90;;;;;;5034465;28;19928;-75
2022/07/02 00:40:08;;;;;;;;;;;13.20;99.90;;;;;;5033372;28;19925;-76
2022/07/02 00:42:37;;;;;;;;;;;13.20;99.90;;;;;;5035312;28;19924;-75
2022/07/02 00:45:03;;;;;;;;;;;13.20;99.90;;;;;;5033641;28;19928;-75
2022/07/02 00:47:29;;;;;;;;;;;13.20;99.90;;;;;;5036210;28;19943;-75
2022/07/02 00:49:55;;;;;;;;;;;13.20;99.90;;;;;;5036149;28;19936;-75
2022/07/02 00:52:20;;;;;;;;;;;13.20;99.90;;;;;;5034546;28;19928;-75
2022/07/02 00:54:46;;;;;;;;;;;13.20;99.90;;;;;;5035504;28;19971;-75
2022/07/02 00:57:12;;;;;;;;;;;13.20;99.90;;;;;;5034032;28;19925;-75
2022/07/02 00:59:38;;;;;;;;;;;13.50;99.90;;;;;;5034390;28;19960;-75
2022/07/02 01:02:06;;;;;;;;;;;13.20;99.90;;;;;;5034862;28;19921;-75
2022/07/02 01:04:32;;;;;;;;;;;13.10;99.90;;;;;;5033904;28;19921;-75
2022/07/02 01:07:02;;;;;;;;;;;13.60;99.90;;;;;;5033024;28;19932;-75
2022/07/02 01:12:14;;;;;;;;;;;13.10;99.90;;;;;;5034492;28;19925;-75
2022/07/02 01:14:40;;;;;;;;;;;13.00;99.90;;;;;;5029696;28;20373;-75
2022/07/02 01:17:06;;;;;;;;;;;13.20;99.90;;;;;;5033467;28;19921;-75
2022/07/02 01:19:31;;;;;;;;;;;13.40;99.90;;;;;;5036738;28;19921;-75
2022/07/02 01:22:16;;;;;;;;;;;13.00;99.90;;;;;;5063859;28;19931;-75
2022/07/02 01:24:43;;;;;;;;;;;13.00;99.90;;;;;;5044974;28;20284;-75
2022/07/02 01:27:08;;;;;;;;;;;13.40;99.90;;;;;;5065488;28;19927;-74
2022/07/02 01:29:34;;;;;;;;;;;13.10;99.90;;;;;;5058765;28;19921;-75
2022/07/02 01:32:00;;;;;;;;;;;13.00;99.90;;;;;;5046192;28;20011;-75
2022/07/02 01:34:25;;;;;;;;;;;13.60;99.90;;;;;;5064811;28;19921;-76
2022/07/02 01:36:51;;;;;;;;;;;13.80;99.90;;;;;;5062083;28;20011;-76
2022/07/02 01:39:22;;;;;;;;;;;13.40;99.90;;;;;;5065772;28;19974;-76
2022/07/02 01:41:48;;;;;;;;;;;13.00;99.90;;;;;;5062547;28;20032;-76
2022/07/02 01:44:14;;;;;;;;;;;13.10;99.90;;;;;;5061093;28;20296;-74
2022/07/02 01:46:39;;;;;;;;;;;13.10;99.90;;;;;;5066166;28;19920;-75
2022/07/02 01:49:05;;;;;;;;;;;13.10;99.90;;;;;;5043896;28;20336;-75
2022/07/02 01:51:31;;;;;;;;;;;13.00;99.90;;;;;;5047190;28;19921;-74
2022/07/02 01:53:56;;;;;;;;;;;13.00;99.90;;;;;;5043003;28;20376;-74
2022/07/02 01:56:22;;;;;;;;;;;13.00;99.90;;;;;;5063597;28;19920;-75
2022/07/02 01:58:47;;;;;;;;;;;13.50;99.90;;;;;;5046532;28;20453;-74
2022/07/02 02:01:13;;;;;;;;;;;13.00;99.90;;;;;;5044208;28;19921;-74
2022/07/02 02:03:39;;;;;;;;;;;12.90;99.90;;;;;;5061061;28;19920;-75
2022/07/02 02:06:04;;;;;;;;;;;12.90;99.90;;;;;;5064523;28;19927;-74
2022/07/02 02:08:30;;;;;;;;;;;12.90;99.90;;;;;;5062554;28;19956;-74
2022/07/02 02:10:55;;;;;;;;;;;12.90;99.90;;;;;;5063131;28;19925;-74
2022/07/02 02:13:21;;;;;;;;;;;12.90;99.90;;;;;;5063689;28;19920;-74
2022/07/02 02:15:46;;;;;;;;;;;12.90;99.90;;;;;;5044693;28;19923;-74
2022/07/02 02:18:12;;;;;;;;;;;12.80;99.90;;;;;;5063241;28;19974;-74
2022/07/02 02:20:38;;;;;;;;;;;12.80;99.90;;;;;;5057291;28;20362;-74
2022/07/02 02:23:04;;;;;;;;;;;12.80;99.90;;;;;;5053009;28;20011;-74
2022/07/02 02:25:33;;;;;;;;;;;12.80;99.90;;;;;;5052635;28;20015;-74
2022/07/02 02:27:59;;;;;;;;;;;12.80;99.90;;;;;;5052620;28;19966;-74
2022/07/02 02:30:25;;;;;;;;;;;12.80;99.90;;;;;;5053369;28;19925;-74
2022/07/02 02:32:50;;;;;;;;;;;13.50;99.90;;;;;;5042258;28;19921;-75
2022/07/02 02:35:16;;;;;;;;;;;12.80;99.90;;;;;;5052675;28;19970;-74
2022/07/02 02:37:41;;;;;;;;;;;12.80;99.90;;;;;;5052968;28;19974;-74
2022/07/02 02:40:08;;;;;;;;;;;12.90;99.90;;;;;;5042663;28;19995;-74
2022/07/02 02:42:33;;;;;;;;;;;12.90;99.90;;;;;;5044086;28;19928;-74
2022/07/02 02:44:59;;;;;;;;;;;13.50;99.90;;;;;;5051521;28;19921;-74
2022/07/02 02:47:24;;;;;;;;;;;12.90;99.90;;;;;;5043296;28;19917;-74
2022/07/02 02:49:50;;;;;;;;;;;12.80;99.90;;;;;;5052196;28;20059;-73
2022/07/02 02:52:15;;;;;;;;;;;12.70;99.90;;;;;;5051622;28;20011;-74
2022/07/02 02:54:41;;;;;;;;;;;13.00;99.90;;;;;;5052085;28;19974;-74
2022/07/02 02:57:06;;;;;;;;;;;12.70;99.90;;;;;;5042525;28;19921;-74
2022/07/02 02:59:32;;;;;;;;;;;13.00;99.90;;;;;;5051907;28;19921;-74
2022/07/02 03:01:57;;;;;;;;;;;13.00;99.90;;;;;;5038726;28;19931;-74
2022/07/02 03:04:23;;;;;;;;;;;12.60;99.90;;;;;;5038664;28;20392;-74
2022/07/02 03:06:48;;;;;;;;;;;12.60;99.90;;;;;;5051527;28;20414;-74
2022/07/02 03:09:14;;;;;;;;;;;12.50;99.90;;;;;;5052767;28;20015;-74
2022/07/02 03:11:39;;;;;;;;;;;13.00;99.90;;;;;;5052157;28;19921;-75
2022/07/02 03:14:05;;;;;;;;;;;12.50;99.90;;;;;;5051774;28;19928;-74
2022/07/02 03:16:30;;;;;;;;;;;12.50;99.90;;;;;;5043027;28;19982;-75
2022/07/02 03:18:59;;;;;;;;;;;12.50;99.90;;;;;;5043173;28;19921;-74
2022/07/02 03:21:24;;;;;;;;;;;12.60;99.90;;;;;;5038737;28;19960;-74
2022/07/02 03:23:50;;;;;;;;;;;12.50;99.90;;;;;;5042615;28;20359;-74
2022/07/02 03:26:15;;;;;;;;;;;12.50;99.90;;;;;;5052609;28;20280;-74
2022/07/02 03:28:41;;;;;;;;;;;13.10;99.90;;;;;;5052208;28;19921;-75
2022/07/02 03:31:06;;;;;;;;;;;12.50;99.90;;;;;;5042924;28;20292;-74
2022/07/02 03:33:32;;;;;;;;;;;12.80;99.90;;;;;;5043262;28;19921;-75
2022/07/02 03:35:57;;;;;;;;;;;12.40;99.90;;;;;;5041969;28;20002;-74
2022/07/02 03:38:23;;;;;;;;;;;12.40;99.90;;;;;;5053335;28;20374;-74
2022/07/02 03:40:48;;;;;;;;;;;12.40;99.90;;;;;;5043424;28;20314;-75
2022/07/02 03:43:14;;;;;;;;;;;12.40;99.90;;;;;;5052020;28;20007;-74
2022/07/02 03:45:39;;;;;;;;;;;12.40;99.90;;;;;;5043447;28;20392;-75
2022/07/02 03:48:05;;;;;;;;;;;12.40;99.90;;;;;;5052275;28;19921;-75
2022/07/02 03:50:30;;;;;;;;;;;12.40;99.90;;;;;;5052419;28;19971;-74
2022/07/02 03:52:56;;;;;;;;;;;12.40;99.90;;;;;;5042022;28;20370;-75
2022/07/02 03:55:22;;;;;;;;;;;12.60;99.90;;;;;;5051871;28;20324;-74
2022/07/02 03:57:47;;;;;;;;;;;12.50;99.90;;;;;;5042719;28;19939;-75
2022/07/02 04:00:13;;;;;;;;;;;13.00;99.90;;;;;;5052996;28;19992;-75
2022/07/02 04:02:41;;;;;;;;;;;12.60;99.90;;;;;;5042129;28;19921;-74
2022/07/02 04:05:07;;;;;;;;;;;12.60;99.90;;;;;;5042598;28;19921;-74
2022/07/02 04:07:33;;;;;;;;;;;12.60;99.90;;;;;;5053348;28;19920;-74
2022/07/02 04:09:58;;;;;;;;;;;12.60;99.90;;;;;;5055659;28;19974;-74
2022/07/02 04:12:24;;;;;;;;;;;13.20;99.90;;;;;;5056746;28;19921;-75
2022/07/02 04:14:49;;;;;;;;;;;12.80;99.90;;;;;;5046099;28;19921;-75
2022/07/02 04:17:15;;;;;;;;;;;12.80;99.90;;;;;;5046311;28;19968;-75
2022/07/02 04:19:40;;;;;;;;;;;12.90;99.90;;;;;;5046269;28;19920;-74
2022/07/02 04:22:06;;;;;;;;;;;13.00;99.90;;;;;;5055297;28;19943;-74
2022/07/02 04:24:31;;;;;;;;;;;13.10;99.90;;;;;;5055235;28;19920;-75
2022/07/02 04:26:57;;;;;;;;;;;13.30;99.90;;;;;;5046484;28;19924;-75
2022/07/02 04:29:23;;;;;;;;;;;13.30;99.90;;;;;;5044732;28;19921;-74
2022/07/02 04:31:48;;;;;;;;;;;13.40;99.90;;;;;;5056021;28;19943;-74
2022/07/02 04:34:14;;;;;;;;;;;13.40;99.90;;;;;;5045868;28;20012;-75
2022/07/02 04:36:39;;;;;;;;;;;13.50;99.90;;;;;;5046467;28;20280;-75
2022/07/02 04:39:05;;;;;;;;;;;13.50;99.90;;;;;;5045378;28;19928;-75
2022/07/02 04:41:31;;;;;;;;;;;13.60;99.90;;;;;;5055793;28;19920;-75
2022/07/02 04:44:00;;;;;;;;;;;13.70;99.90;;;;;;5055356;28;19928;-74
2022/07/02 04:46:26;;;;;;;;;;;13.80;99.90;;;;;;5045106;28;19926;-74
2022/07/02 04:48:51;;;;;;;;;;;13.90;99.90;;;;;;5045940;28;19921;-75
2022/07/02 04:51:17;;;;;;;;;;;13.90;99.90;;;;;;5055643;28;20331;-75
2022/07/02 04:53:43;;;;;;;;;;;14.00;99.90;;;;;;5054935;28;19943;-75
2022/07/02 04:56:08;;;;;;;;;;;14.00;99.90;;;;;;5045440;28;19921;-74
2022/07/02 04:58:34;;;;;;;;;;;14.10;99.90;;;;;;5055075;28;19920;-74
2022/07/02 05:01:00;;;;;;;;;;;14.10;99.90;;;;;;5045398;28;19958;-74
2022/07/02 05:03:25;;;;;;;;;;;14.20;99.90;;;;;;5055300;28;19921;-74
2022/07/02 05:05:51;;;;;;;;;;;14.20;99.90;;;;;;5054794;28;20395;-75
2022/07/02 05:08:20;;;;;;;;;;;14.30;99.90;;;;;;5055712;28;19928;-74
2022/07/02 05:10:48;;;;;;;;;;;14.30;99.90;;;;;;5045755;28;19929;-75
2022/07/02 05:13:14;;;;;;;;;;;14.40;99.90;;;;;;5046011;28;19970;-75
2022/07/02 05:15:39;;;;;;;;;;;14.60;99.90;;;;;;5045265;28;19920;-74
2022/07/02 05:18:05;;;;;;;;;;;14.50;99.90;;;;;;5045029;28;20662;-75
2022/07/02 05:20:30;;;;;;;;;;;14.60;99.90;;;;;;5058768;28;19920;-74
2022/07/02 05:22:56;;;;;;;;;;;14.70;99.90;;;;;;5061469;28;19960;-75
2022/07/02 05:25:21;;;;;;;;;;;14.80;99.90;;;;;;5047240;28;19917;-75
2022/07/02 05:27:47;;;;;;;;;;;14.80;99.90;;;;;;5046807;28;20379;-75
2022/07/02 05:30:13;;;;;;;;;;;14.90;99.90;;;;;;5063965;28;19920;-74
2022/07/02 05:32:38;;;;;;;;;;;14.80;99.90;;;;;;5048862;28;19928;-74
2022/07/02 05:35:05;;;;;;;;;;;15.00;99.90;;;;;;5044692;28;19920;-74
2022/07/02 05:37:31;;;;;;;;;;;15.10;99.90;;;;;;5045359;28;19920;-74
2022/07/02 05:39:56;;;;;;;;;;;15.40;99.90;;;;;;5045160;28;19921;-75
2022/07/02 05:42:25;;;;;;;;;;;15.30;99.90;;;;;;5066202;28;19924;-74
2022/07/02 05:44:50;;;;;;;;;;;15.30;99.90;;;;;;5045554;28;20261;-74
2022/07/02 05:47:16;;;;;;;;;;;15.40;99.90;;;;;;5063748;28;19924;-74
2022/07/02 05:49:41;;;;;;;;;;;15.50;99.90;;;;;;5064651;28;20015;-74
2022/07/02 05:52:07;;;;;;;;;;;15.70;99.90;;;;;;5062796;28;19927;-74
2022/07/02 05:54:33;;;;;;;;;;;15.80;99.90;;;;;;5064084;28;19927;-74
2022/07/02 05:56:58;;;;;;;;;;;15.90;99.90;;;;;;5065558;28;19920;-74
2022/07/02 05:59:24;;;;;;;;;;;16.10;99.90;;;;;;5063307;28;20014;-74
2022/07/02 06:01:49;;;;;;;;;;;16.20;99.90;;;;;;5064167;28;19925;-74
2022/07/02 06:04:15;;;;;;;;;;;16.40;99.90;;;;;;5045605;28;20288;-74
2022/07/02 06:09:24;;;;;;;;;;;16.70;99.90;;;;;;5054910;28;19920;-75
2022/07/02 06:11:50;;;;;;;;;;;16.80;99.90;;;;;;5060506;28;20375;-76
2022/07/02 06:14:15;;;;;;;;;;;16.90;99.90;;;;;;5062693;28;19928;-75
2022/07/02 06:16:41;;;;;;;;;;;16.90;99.90;;;;;;5042904;28;20272;-76
2022/07/02 06:19:07;;;;;;;;;;;16.70;99.90;;;;;;5045413;28;20268;-77
2022/07/02 06:21:33;;;;;;;;;;;16.70;99.90;;;;;;5058878;28;19973;-76
2022/07/02 06:24:01;;;;;;;;;;;16.70;99.90;;;;;;5040160;28;20441;-77
2022/07/02 06:26:27;;;;;;;;;;;16.70;99.90;;;;;;5060798;28;19924;-78
2022/07/02 06:28:52;;;;;;;;;;;16.70;99.90;;;;;;5043221;28;20333;-78
2022/07/02 06:31:18;;;;;;;;;;;16.90;99.90;;;;;;5044719;28;19928;-77
2022/07/02 06:33:43;;;;;;;;;;;16.70;99.90;;;;;;5061969;28;20470;-77
2022/07/02 06:36:14;;;;;;;;;;;16.90;99.90;;;;;;5062534;28;20391;-77
2022/07/02 06:38:39;;;;;;;;;;;17.00;99.90;;;;;;5061532;28;19920;-77
2022/07/02 06:43:49;;;;;;;;;;;17.00;99.90;;;;;;5057341;28;20346;-77
2022/07/02 06:46:15;;;;;;;;;;;17.00;99.90;;;;;;5044743;28;19973;-77
2022/07/02 06:48:40;;;;;;;;;;;17.20;99.90;;;;;;5059471;28;19966;-78
2022/07/02 06:51:06;;;;;;;;;;;17.20;99.90;;;;;;5061082;28;20036;-77
2022/07/02 06:53:31;;;;;;;;;;;17.30;99.90;;;;;;5042619;28;19921;-78
2022/07/02 06:55:57;;;;;;;;;;;17.30;99.90;;;;;;5060605;28;20292;-76
2022/07/02 06:58:22;;;;;;;;;;;17.50;99.90;;;;;;5062823;28;20394;-75
2022/07/02 07:00:48;;;;;;;;;;;17.70;99.90;;;;;;5060273;28;19924;-76
2022/07/02 07:03:13;;;;;;;;;;;17.70;99.90;;;;;;5042986;28;19920;-76
2022/07/02 07:05:39;;;;;;;;;;;17.80;99.90;;;;;;5059678;28;19920;-76
2022/07/02 07:08:05;;;;;;;;;;;17.80;99.90;;;;;;5044501;28;20498;-80
2022/07/02 07:10:34;;;;;;;;;;;17.90;99.90;;;;;;5061556;28;19926;-80
2022/07/02 07:12:59;;;;;;;;;;;18.00;99.90;;;;;;5060784;28;19928;-79
2022/07/02 07:15:24;;;;;;;;;;;18.10;99.90;;;;;;5045026;28;19920;-79
2022/07/02 07:17:50;;;;;;;;;;;18.30;99.90;;;;;;5042579;28;19971;-85
2022/07/02 07:20:19;;;;;;;;;;;18.40;99.90;;;;;;5041827;28;19960;-82
2022/07/02 07:22:44;;;;;;;;;;;18.70;99.90;;;;;;5042544;28;19956;-84
2022/07/02 07:25:10;;;;;;;;;;;19.30;99.90;;;;;;5037947;28;19932;-84
2022/07/02 07:27:39;;;;;;;;;;;19.90;99.90;;;;;;5042116;28;19929;-84
2022/07/02 07:30:04;;;;;;;;;;;20.20;99.90;;;;;;5041588;28;19921;-79
2022/07/02 07:32:30;;;;;;;;;;;20.40;99.90;;;;;;5041973;28;19926;-84
2022/07/02 07:34:55;;;;;;;;;;;20.70;99.90;;;;;;5050492;28;19980;-80
2022/07/02 07:37:21;;;;;;;;;;;20.80;99.90;;;;;;5059292;28;20345;-83
2022/07/02 07:39:47;;;;;;;;;;;21.00;99.90;;;;;;5051779;28;19921;-84
2022/07/02 07:42:12;;;;;;;;;;;21.70;99.90;;;;;;5041157;28;19971;-83
2022/07/02 07:44:41;;;;;;;;;;;22.20;99.90;;;;;;5041969;28;19924;-80
2022/07/02 07:47:07;;;;;;;;;;;23.00;99.90;;;;;;5042117;28;19928;-84
2022/07/02 07:49:32;;;;;;;;;;;22.90;99.90;;;;;;5040978;28;19928;-81
2022/07/02 07:51:58;;;;;;;;;;;23.20;99.60;;;;;;5041161;28;19931;-82
2022/07/02 07:54:23;;;;;;;;;;;23.40;98.90;;;;;;5050541;28;20013;-81
2022/07/02 07:56:49;;;;;;;;;;;23.70;98.60;;;;;;5051726;28;20020;-79
2022/07/02 07:59:14;;;;;;;;;;;23.90;98.60;;;;;;5042350;28;20368;-80
2022/07/02 08:01:40;;;;;;;;;;;24.10;98.40;;;;;;5050949;28;19924;-80
2022/07/02 08:04:05;;;;;;;;;;;24.50;96.60;;;;;;5037623;28;19920;-82
2022/07/02 08:06:31;;;;;;;;;;;24.40;96.30;;;;;;5051727;28;20012;-82
2022/07/02 08:08:57;;;;;;;;;;;24.30;96.60;;;;;;5037771;28;19925;-81
2022/07/02 08:11:23;;;;;;;;;;;24.40;96.80;;;;;;5051833;28;19928;-81
2022/07/02 08:13:48;;;;;;;;;;;24.60;96.80;;;;;;5042206;28;19921;-79
2022/07/02 08:16:14;;;;;;;;;;;24.80;95.70;;;;;;5041115;28;19917;-80
2022/07/02 08:18:39;;;;;;;;;;;24.90;95.60;;;;;;5052330;28;20003;-80
2022/07/02 08:21:05;;;;;;;;;;;24.70;95.40;;;;;;5041517;28;20411;-80
2022/07/02 08:23:30;;;;;;;;;;;24.60;95.40;;;;;;5050092;28;19924;-80
2022/07/02 08:25:56;;;;;;;;;;;24.50;95.80;;;;;;5050991;28;19982;-81
2022/07/02 08:28:22;;;;;;;;;;;24.70;96.30;;;;;;5042523;28;19921;-82
2022/07/02 08:30:47;;;;;;;;;;;24.70;95.80;;;;;;5040878;28;19925;-82
2022/07/02 08:33:15;;;;;;;;;;;24.90;95.40;;;;;;5051211;28;20395;-81
2022/07/02 08:35:41;;;;;;;;;;;24.80;94.40;;;;;;5041817;28;20010;-81
2022/07/02 08:38:07;;;;;;;;;;;24.30;94.90;;;;;;5040051;28;19975;-81
2022/07/02 08:40:33;;;;;;;;;;;24.60;94.40;;;;;;5051394;28;19964;-82
2022/07/02 08:42:59;;;;;;;;;;;24.70;94.40;;;;;;5041269;28;20283;-82
2022/07/02 08:45:26;;;;;;;;;;;24.50;94.60;;;;;;5050139;28;20475;-83
2022/07/02 08:47:52;;;;;;;;;;;24.00;94.90;;;;;;5041780;28;19944;-82
2022/07/02 08:50:21;;;;;;;;;;;23.40;95.50;;;;;;5041478;28;19928;-82
2022/07/02 08:52:48;;;;;;;;;;;22.90;96.50;;;;;;5040837;28;19921;-82
2022/07/02 08:55:14;;;;;;;;;;;23.40;96.60;;;;;;5054069;28;19929;-81
2022/07/02 08:57:39;;;;;;;;;;;24.10;96.30;;;;;;5044609;28;19924;-84
2022/07/02 09:00:05;;;;;;;;;;;24.40;95.30;;;;;;5046061;28;19967;-86
2022/07/02 09:02:31;;;;;;;;;;;23.90;94.70;;;;;;5045363;28;19927;-82
2022/07/02 09:04:57;;;;;;;;;;;23.50;95.20;;;;;;5043788;28;20039;-76
2022/07/02 09:07:23;;;;;;;;;;;23.50;96.00;;;;;;5044554;28;20323;-93
2022/07/02 09:09:49;;;;;;;;;;;23.10;96.20;;;;;;5054076;28;20382;-81
2022/07/02 09:12:15;;;;;;;;;;;23.40;96.70;;;;;;5044135;28;19920;-82
2022/07/02 09:14:41;;;;;;;;;;;24.00;95.10;;;;;;5044230;28;19920;-84
2022/07/02 09:17:08;;;;;;;;;;;24.50;94.50;;;;;;5054365;28;19928;-84
2022/07/02 09:19:34;;;;;;;;;;;24.30;93.50;;;;;;5043786;28;19943;-82
2022/07/02 09:21:59;;;;;;;;;;;23.50;94.60;;;;;;5053940;28;19924;-83
2022/07/02 09:24:29;;;;;;;;;;;23.90;95.40;;;;;;5045062;28;20281;-81
2022/07/02 09:27:13;;;;;;;;;;;24.40;95.90;;;;;;5048753;28;19972;-75
2022/07/02 09:29:52;;;;;;;;;;;24.50;94.00;;;;;;5043895;28;19921;-75
2022/07/02 09:32:19;;;;;;;;;;;23.70;95.00;;;;;;5044220;28;19928;-74
2022/07/02 09:34:48;;;;;;;;;;;23.80;95.30;;;;;;5053164;28;19921;-76
2022/07/02 09:37:15;;;;;;;;;;;23.70;95.20;;;;;;5044218;28;19916;-75
2022/07/02 09:39:46;;;;;;;;;;;23.20;95.20;;;;;;5040482;28;19921;-76
2022/07/02 09:42:22;;;;;;;;;;;23.70;94.90;;;;;;5044091;28;19920;-74
2022/07/02 09:44:47;;;;;;;;;;;24.20;93.80;;;;;;5053579;28;19921;-80
2022/07/02 09:47:13;;;;;;;;;;;24.80;94.10;;;;;;5052984;28;19936;-76
2022/07/02 09:49:48;;;;;;;;;;;25.10;93.40;;;;;;5053646;28;19923;-77
2022/07/02 09:52:15;;;;;;;;;;;25.70;93.70;;;;;;5043536;28;19921;-77
2022/07/02 09:54:41;;;;;;;;;;;26.00;91.50;;;;;;5043121;28;20281;-77
2022/07/02 09:57:08;;;;;;;;;;;26.30;91.10;;;;;;5043807;28;19946;-79
2022/07/02 09:59:37;;;;;;;;;;;26.10;90.80;;;;;;5044119;28;19927;-79
2022/07/02 10:02:04;;;;;;;;;;;25.00;91.60;;;;;;5052083;28;20456;-78
2022/07/02 10:04:30;;;;;;;;;;;24.30;92.70;;;;;;5052259;28;19928;-78
2022/07/02 10:06:57;;;;;;;;;;;24.60;93.20;;;;;;5043797;28;19974;-78
2022/07/02 10:09:24;;;;;;;;;;;25.30;92.50;;;;;;5054234;28;19920;-79
2022/07/02 10:11:50;;;;;;;;;;;25.70;93.00;;;;;;5040746;28;19921;-78
2022/07/02 10:14:16;;;;;;;;;;;25.50;90.40;;;;;;5054897;28;19957;-78
2022/07/02 10:16:42;;;;;;;;;;;25.80;90.90;;;;;;5053035;28;20004;-79
2022/07/02 10:19:09;;;;;;;;;;;26.00;90.30;;;;;;5044688;28;20163;-75
2022/07/02 10:21:37;;;;;;;;;;;25.70;90.90;;;;;;5043346;28;19924;-78
2022/07/02 10:24:03;;;;;;;;;;;25.60;91.20;;;;;;5052462;28;19921;-79
2022/07/02 10:26:29;;;;;;;;;;;25.30;91.60;;;;;;5053075;28;19925;-80
2022/07/02 10:28:55;;;;;;;;;;;25.30;91.50;;;;;;5039808;28;20288;-79
2022/07/02 10:31:20;;;;;;;;;;;25.50;90.40;;;;;;5052072;28;19920;-79
2022/07/02 10:33:52;;;;;;;;;;;25.60;90.80;;;;;;5043514;28;19924;-78
2022/07/02 10:36:18;;;;;;;;;;;25.50;90.70;;;;;;5042942;28;19928;-80
2022/07/02 10:38:46;;;;;;;;;;;25.60;90.80;;;;;;5052791;28;19924;-78
2022/07/02 10:41:12;;;;;;;;;;;25.70;91.00;;;;;;5052894;28;20261;-80
2022/07/02 10:43:38;;;;;;;;;;;24.90;90.80;;;;;;5041832;28;20307;-78
2022/07/02 10:46:08;;;;;;;;;;;24.80;91.90;;;;;;5039253;28;19928;-77
2022/07/02 10:48:35;;;;;;;;;;;24.40;93.40;;;;;;5052542;28;19963;-77
2022/07/02 10:51:01;;;;;;;;;;;24.30;93.90;;;;;;5042039;28;19928;-78
2022/07/02 10:53:27;;;;;;;;;;;24.60;93.90;;;;;;5043272;28;20418;-78
2022/07/02 10:55:53;;;;;;;;;;;24.90;93.20;;;;;;5042675;28;20327;-78
2022/07/02 10:58:23;;;;;;;;;;;24.90;93.60;;;;;;5042707;28;20356;-79
2022/07/02 11:00:48;;;;;;;;;;;24.40;93.40;;;;;;5034928;28;19972;-78
2022/07/02 11:03:14;;;;;;;;;;;24.30;93.30;;;;;;5039826;28;19991;-77
2022/07/02 11:05:56;;;;;;;;;;;24.20;93.50;;;;;;5042054;28;19987;-78
2022/07/02 11:08:40;;;;;;;;;;;23.90;93.70;;;;;;5050488;28;19943;-78
2022/07/02 11:11:05;;;;;;;;;;;24.30;94.30;;;;;;5038478;28;19921;-77
2022/07/02 11:13:34;;;;;;;;;;;24.40;93.90;;;;;;5050919;28;19929;-78
2022/07/02 11:16:05;;;;;;;;;;;24.90;93.40;;;;;;5051314;28;20415;-76
2022/07/02 11:18:31;;;;;;;;;;;25.40;92.60;;;;;;5050977;28;19933;-78
2022/07/02 11:20:56;;;;;;;;;;;25.80;93.10;;;;;;5055757;28;20300;-77
2022/07/02 11:23:22;;;;;;;;;;;25.90;92.40;;;;;;5061637;28;19920;-77
2022/07/02 11:25:48;;;;;;;;;;;25.60;90.50;;;;;;5061098;28;20423;-80
2022/07/02 11:28:14;;;;;;;;;;;24.90;91.10;;;;;;5062364;28;20356;-77
2022/07/02 11:30:39;;;;;;;;;;;24.90;91.80;;;;;;5061198;28;19920;-78
2022/07/02 11:33:15;;;;;;;;;;;25.10;92.10;;;;;;5045433;28;19920;-77
2022/07/02 11:35:42;;;;;;;;;;;24.90;92.20;;;;;;5061162;28;19920;-78
2022/07/02 11:38:08;;;;;;;;;;;24.60;91.90;;;;;;5063025;28;20057;-76
2022/07/02 11:40:33;;;;;;;;;;;24.10;92.00;;;;;;5059194;28;20007;-77
2022/07/02 11:42:59;;;;;;;;;;;23.80;92.10;;;;;;5054768;28;20041;-78
2022/07/02 11:45:24;;;;;;;;;;;23.50;92.80;;;;;;5043518;28;19920;-78
2022/07/02 11:47:50;;;;;;;;;;;23.30;93.50;;;;;;5059059;28;19931;-76
2022/07/02 11:50:28;;;;;;;;;;;23.50;94.20;;;;;;5044220;28;19925;-78
2022/07/02 11:52:54;;;;;;;;;;;23.80;93.50;;;;;;5059966;28;19925;-77
2022/07/02 11:55:20;;;;;;;;;;;23.90;93.50;;;;;;5043747;28;19928;-78
2022/07/02 11:57:46;;;;;;;;;;;24.20;92.90;;;;;;5043396;28;19966;-76
2022/07/02 12:00:11;;;;;;;;;;;23.70;93.00;;;;;;5041408;28;19921;-77
2022/07/02 12:02:38;;;;;;;;;;;23.60;93.20;;;;;;5056490;28;19920;-77
2022/07/02 12:05:17;;;;;;;;;;;23.40;93.10;;;;;;5044801;28;19967;-76
2022/07/02 12:07:43;;;;;;;;;;;23.10;93.80;;;;;;5037737;28;19943;-79
2022/07/02 12:10:09;;;;;;;;;;;23.10;94.40;;;;;;5060815;28;20360;-79
2022/07/02 12:12:35;;;;;;;;;;;22.90;94.50;;;;;;5058782;28;19964;-79
2022/07/02 12:15:01;;;;;;;;;;;23.10;94.10;;;;;;5039730;28;19951;-77
2022/07/02 12:17:28;;;;;;;;;;;23.10;93.80;;;;;;5059819;28;19920;-77
2022/07/02 12:19:53;;;;;;;;;;;23.00;93.90;;;;;;5037001;28;20335;-78
2022/07/02 12:22:22;;;;;;;;;;;23.10;93.30;;;;;;5042400;28;19956;-77
2022/07/02 12:24:51;;;;;;;;;;;23.30;93.70;;;;;;5062769;28;19920;-75
2022/07/02 12:27:17;;;;;;;;;;;23.70;93.20;;;;;;5044298;28;19939;-77
2022/07/02 12:29:58;;;;;;;;;;;23.80;93.20;;;;;;5062957;28;19924;-76
2022/07/02 12:32:25;;;;;;;;;;;23.90;92.90;;;;;;5060036;28;19921;-77
2022/07/02 12:34:51;;;;;;;;;;;23.80;92.40;;;;;;5066239;28;20392;-78
2022/07/02 12:37:20;;;;;;;;;;;23.70;92.60;;;;;;5035485;28;19920;-75
2022/07/02 12:39:46;;;;;;;;;;;23.60;92.60;;;;;;5044422;28;19929;-79
2022/07/02 12:42:12;;;;;;;;;;;23.60;93.00;;;;;;5047408;28;19920;-67
2022/07/02 12:44:37;;;;;;;;;;;23.60;92.70;;;;;;5064733;28;19974;-65
2022/07/02 12:47:03;;;;;;;;;;;23.70;92.80;;;;;;5060486;28;19921;-74
2022/07/02 12:49:28;;;;;;;;;;;23.70;92.30;;;;;;5060202;28;19928;-66
2022/07/02 12:52:03;;;;;;;;;;;23.50;93.00;;;;;;5061976;28;19920;-80
2022/07/02 12:54:35;;;;;;;;;;;23.50;92.00;;;;;;5047853;28;20407;-77
2022/07/02 12:57:20;;;;;;;;;;;23.30;92.10;;;;;;5062961;28;19998;-75
2022/07/02 12:59:46;;;;;;;;;;;23.20;92.80;;;;;;5040479;28;19974;-78
2022/07/02 13:02:17;;;;;;;;;;;23.50;93.10;;;;;;5051433;28;20436;-82
2022/07/02 13:04:44;;;;;;;;;;;23.70;92.70;;;;;;5042451;28;20015;-76
2022/07/02 13:07:10;;;;;;;;;;;23.50;92.20;;;;;;5054707;28;20038;-71
2022/07/02 13:09:36;;;;;;;;;;;23.30;92.00;;;;;;5058717;28;19955;-71
2022/07/02 13:12:01;;;;;;;;;;;23.40;92.50;;;;;;5058456;28;20337;-83
2022/07/02 13:14:27;;;;;;;;;;;23.30;92.50;;;;;;5042265;28;19928;-72
2022/07/02 13:16:52;;;;;;;;;;;23.30;91.70;;;;;;5046729;28;19926;-72
2022/07/02 13:19:18;;;;;;;;;;;23.10;91.90;;;;;;5061704;28;19932;-74
2022/07/02 13:21:43;;;;;;;;;;;23.20;91.40;;;;;;5032465;28;19967;-76
2022/07/02 13:24:09;;;;;;;;;;;23.20;92.30;;;;;;5032743;28;20035;-72
2022/07/02 13:26:34;;;;;;;;;;;23.20;91.70;;;;;;5031160;28;20279;-74
2022/07/02 13:29:03;;;;;;;;;;;23.20;92.50;;;;;;5031284;28;19921;-72
2022/07/02 13:31:29;;;;;;;;;;;23.30;92.60;;;;;;5033620;28;19931;-71
2022/07/02 13:33:54;;;;;;;;;;;23.70;92.00;;;;;;5029919;28;19921;-69
2022/07/02 13:36:20;;;;;;;;;;;24.00;92.30;;;;;;5033984;28;19921;-73
2022/07/02 13:38:45;;;;;;;;;;;24.00;91.50;;;;;;5025356;28;19928;-75
2022/07/02 13:41:11;;;;;;;;;;;23.90;90.80;;;;;;5028378;28;19967;-70
2022/07/02 13:43:36;;;;;;;;;;;23.90;90.80;;;;;;5030812;28;19920;-72
2022/07/02 13:46:02;;;;;;;;;;;23.80;91.50;;;;;;5029019;28;19920;-72
2022/07/02 13:48:27;;;;;;;;;;;23.60;91.90;;;;;;5029619;28;20186;-69
2022/07/02 13:50:53;;;;;;;;;;;23.70;91.10;;;;;;5028213;28;19921;-71
2022/07/02 13:53:18;;;;;;;;;;;23.50;91.50;;;;;;5029814;28;19925;-70
2022/07/02 13:55:44;;;;;;;;;;;23.50;91.80;;;;;;5025687;28;20336;-69
2022/07/02 13:58:09;;;;;;;;;;;23.50;91.50;;;;;;5026997;28;19980;-70
2022/07/02 14:00:35;;;;;;;;;;;23.40;91.80;;;;;;5028767;28;19968;-72
2022/07/02 14:03:00;;;;;;;;;;;23.50;92.20;;;;;;5028421;28;19965;-70
2022/07/02 14:05:26;;;;;;;;;;;23.60;91.60;;;;;;5031643;28;19921;-76
2022/07/02 14:07:51;;;;;;;;;;;23.60;92.30;;;;;;5030003;28;19967;-72
2022/07/02 14:10:17;;;;;;;;;;;23.70;92.40;;;;;;5032359;28;19972;-74
2022/07/02 14:12:45;;;;;;;;;;;23.70;91.80;;;;;;5022958;28;19921;-78
2022/07/02 14:15:11;;;;;;;;;;;23.70;92.40;;;;;;5028375;28;20012;-73
2022/07/02 14:17:37;;;;;;;;;;;23.90;92.50;;;;;;5029845;28;20356;-71
2022/07/02 14:20:02;;;;;;;;;;;23.90;92.00;;;;;;5030265;28;20388;-70